createdAt,value
2023-04-22T00:01:17.405Z,14.30
2023-04-22T00:03:44.992Z,20.53
2023-04-22T00:06:12.962Z,16.40
2023-04-22T00:08:40.125Z,16.07
2023-04-22T00:11:07.266Z,14.43
2023-04-22T00:13:34.457Z,10.50
2023-04-22T00:16:01.525Z,12.83
2023-04-22T00:18:28.602Z,11.23
2023-04-22T00:20:55.936Z,18.60
2023-04-22T00:23:23.043Z,16.47
2023-04-22T00:25:50.164Z,14.43
2023-04-22T00:28:17.289Z,15.00
2023-04-22T00:30:44.525Z,11.80
2023-04-22T00:33:11.891Z,17.00
2023-04-22T00:35:38.956Z,14.00
2023-04-22T00:38:06.132Z,9.67
2023-04-22T00:40:33.263Z,14.63
2023-04-22T00:43:01.429Z,12.83
2023-04-22T00:45:30.779Z,10.73
2023-04-22T00:47:58.200Z,14.03
2023-04-22T00:50:25.638Z,12.40
2023-04-22T00:52:52.951Z,14.00
2023-04-22T00:55:20.308Z,10.70
2023-04-22T00:57:49.892Z,17.43
2023-04-22T01:00:20.057Z,13.00
2023-04-22T01:02:48.184Z,15.53
2023-04-22T01:05:15.430Z,13.27
2023-04-22T01:07:42.670Z,15.13
2023-04-22T01:10:10.338Z,12.67
2023-04-22T01:12:37.438Z,11.20
2023-04-22T01:15:05.993Z,13.60
2023-04-22T01:17:33.874Z,11.33
2023-04-22T01:20:04.011Z,13.23
2023-04-22T01:22:41.287Z,14.60
2023-04-22T01:25:11.330Z,12.50
2023-04-22T01:27:40.572Z,11.90
2023-04-22T01:30:09.312Z,11.70
2023-04-22T01:32:37.253Z,14.10
2023-04-22T01:35:05.387Z,18.60
2023-04-22T01:37:32.516Z,14.27
2023-04-22T01:39:59.761Z,12.93
2023-04-22T01:42:27.173Z,15.40
2023-04-22T01:44:54.578Z,14.57
2023-04-22T01:47:21.857Z,13.93
2023-04-22T01:49:49.085Z,15.03
2023-04-22T01:52:17.687Z,14.03
2023-04-22T01:54:44.770Z,12.37
2023-04-22T01:57:14.265Z,17.47
2023-04-22T01:59:41.963Z,19.20
2023-04-22T02:02:09.498Z,17.50
2023-04-22T02:04:36.715Z,12.50
2023-04-22T02:07:04.158Z,11.90
2023-04-22T02:09:34.438Z,14.67
2023-04-22T02:12:02.054Z,12.43
2023-04-22T02:14:29.128Z,17.80
2023-04-22T02:16:56.330Z,17.67
2023-04-22T02:19:23.564Z,19.10
2023-04-22T02:21:50.898Z,12.80
2023-04-22T02:24:18.050Z,18.13
2023-04-22T02:26:46.080Z,15.03
2023-04-22T02:29:13.935Z,17.23
2023-04-22T02:31:41.078Z,15.10
2023-04-22T02:34:08.480Z,15.17
2023-04-22T02:36:35.706Z,16.47
2023-04-22T02:39:06.170Z,18.40
2023-04-22T02:41:35.666Z,14.40
2023-04-22T02:44:03.051Z,15.60
2023-04-22T02:46:30.282Z,16.13
2023-04-22T02:48:57.604Z,16.80
2023-04-22T02:51:24.704Z,16.03
2023-04-22T02:53:52.093Z,17.20
2023-04-22T02:56:20.689Z,17.20
2023-04-22T02:58:47.792Z,18.57
2023-04-22T03:01:14.977Z,13.83
2023-04-22T03:03:42.464Z,18.47
2023-04-22T03:06:13.210Z,19.43
2023-04-22T03:08:40.439Z,18.60
2023-04-22T03:11:07.619Z,15.07
2023-04-22T03:13:34.792Z,20.30
2023-04-22T03:16:02.043Z,15.83
2023-04-22T03:18:29.685Z,15.10
2023-04-22T03:20:56.941Z,13.47
2023-04-22T03:23:24.133Z,17.83
2023-04-22T03:25:51.968Z,18.67
2023-04-22T03:28:19.731Z,20.87
2023-04-22T03:30:47.484Z,18.87
2023-04-22T03:33:15.179Z,20.17
2023-04-22T03:35:51.421Z,19.03
2023-04-22T03:38:18.562Z,25.33
2023-04-22T03:40:46.010Z,18.17
2023-04-22T03:43:24.753Z,18.47
2023-04-22T03:46:00.437Z,15.60
2023-04-22T03:48:33.455Z,15.93
2023-04-22T03:51:03.518Z,15.87
2023-04-22T03:53:35.835Z,22.23
2023-04-22T03:56:03.068Z,25.50
2023-04-22T03:58:33.083Z,19.20
2023-04-22T04:01:02.473Z,14.77
2023-04-22T04:03:31.186Z,16.00
2023-04-22T04:05:59.037Z,15.43
2023-04-22T04:08:26.857Z,17.90
2023-04-22T04:10:54.034Z,12.80
2023-04-22T04:13:21.101Z,16.67
2023-04-22T04:16:07.134Z,15.27
2023-04-22T04:18:38.971Z,12.63
2023-04-22T04:21:06.637Z,16.60
2023-04-22T04:23:38.135Z,19.67
2023-04-22T04:26:05.729Z,13.07
2023-04-22T04:28:36.169Z,13.00
2023-04-22T04:31:03.548Z,11.77
2023-04-22T04:33:34.293Z,19.23
2023-04-22T04:36:01.700Z,19.50
2023-04-22T04:38:34.215Z,13.77
2023-04-22T04:41:01.712Z,14.77
2023-04-22T04:43:29.687Z,12.70
2023-04-22T04:46:20.926Z,12.63
2023-04-22T04:48:50.725Z,16.23
2023-04-22T04:51:20.377Z,11.33
2023-04-22T04:53:55.635Z,11.67
2023-04-22T04:56:24.417Z,16.60
2023-04-22T04:58:52.184Z,12.83
2023-04-22T05:01:24.153Z,11.30
2023-04-22T05:03:52.595Z,27.83
2023-04-22T05:06:21.235Z,14.13
2023-04-22T05:08:57.722Z,13.30
2023-04-22T05:11:25.053Z,12.70
2023-04-22T05:13:53.343Z,11.20
2023-04-22T05:16:34.121Z,9.53
2023-04-22T05:19:01.585Z,11.87
2023-04-22T05:21:28.700Z,12.10
2023-04-22T05:23:56.361Z,14.37
2023-04-22T05:26:24.366Z,13.20
2023-04-22T05:28:51.638Z,14.57
2023-04-22T05:31:19.801Z,12.67
2023-04-22T05:33:47.725Z,13.00
2023-04-22T05:36:14.877Z,11.90
2023-04-22T05:38:43.441Z,14.87
2023-04-22T05:41:10.575Z,14.77
2023-04-22T05:43:37.777Z,11.47
2023-04-22T05:46:10.206Z,10.40
2023-04-22T05:48:39.724Z,9.60
2023-04-22T05:51:10.489Z,16.93
2023-04-22T05:53:38.194Z,15.00
2023-04-22T05:56:06.018Z,11.37
2023-04-22T05:58:33.924Z,12.50
2023-04-22T06:01:09.408Z,15.83
2023-04-22T06:03:55.265Z,8.87
2023-04-22T06:06:24.285Z,17.10
2023-04-22T06:08:51.519Z,11.63
2023-04-22T06:11:18.821Z,14.07
2023-04-22T06:13:45.937Z,14.77
2023-04-22T06:16:13.054Z,14.13
2023-04-22T06:18:40.414Z,11.30
2023-04-22T06:21:11.857Z,9.63
2023-04-22T06:23:40.034Z,11.37
2023-04-22T06:26:07.289Z,16.77
2023-04-22T06:28:36.436Z,10.03
2023-04-22T06:31:08.640Z,16.80
2023-04-22T06:33:36.631Z,12.60
2023-04-22T06:36:05.138Z,13.00
2023-04-22T06:38:33.269Z,11.10
2023-04-22T06:41:22.655Z,10.30
2023-04-22T06:43:51.645Z,15.00
2023-04-22T06:46:18.802Z,17.87
2023-04-22T06:49:09.114Z,16.93
2023-04-22T06:51:54.625Z,14.33
2023-04-22T06:54:22.321Z,13.37
2023-04-22T06:56:50.630Z,11.67
2023-04-22T06:59:17.848Z,9.67
2023-04-22T07:01:47.121Z,12.17
2023-04-22T07:04:14.430Z,12.60
2023-04-22T07:06:43.325Z,10.10
2023-04-22T07:09:10.691Z,17.23
2023-04-22T07:11:38.685Z,11.23
2023-04-22T07:14:10.927Z,13.10
2023-04-22T07:16:39.006Z,11.80
2023-04-22T07:19:06.373Z,15.03
2023-04-22T07:21:33.963Z,12.00
2023-04-22T07:24:01.042Z,11.73
2023-04-22T07:26:28.297Z,9.50
2023-04-22T07:28:55.422Z,9.53
2023-04-22T07:31:22.606Z,12.20
2023-04-22T07:33:49.772Z,8.43
2023-04-22T07:36:17.221Z,9.53
2023-04-22T07:38:44.322Z,11.67
2023-04-22T07:41:11.431Z,9.90
2023-04-22T07:43:38.493Z,16.10
2023-04-22T07:46:05.683Z,11.80
2023-04-22T07:48:32.834Z,9.07
2023-04-22T07:50:59.893Z,12.73
2023-04-22T07:53:26.959Z,10.80
2023-04-22T07:55:55.880Z,12.07
2023-04-22T07:58:23.014Z,12.30
2023-04-22T08:00:50.155Z,9.77
2023-04-22T08:03:17.455Z,12.10
2023-04-22T08:05:44.976Z,12.73
2023-04-22T08:08:12.100Z,10.20
2023-04-22T08:10:39.215Z,11.73
2023-04-22T08:13:06.400Z,8.27
2023-04-22T08:15:33.564Z,9.07
2023-04-22T08:18:00.725Z,8.93
2023-04-22T08:20:27.938Z,11.60
2023-04-22T08:23:00.263Z,8.77
2023-04-22T08:25:28.151Z,18.57
2023-04-22T08:27:55.565Z,10.80
2023-04-22T08:30:22.742Z,9.27
2023-04-22T08:32:49.927Z,8.50
2023-04-22T08:35:17.231Z,10.03
2023-04-22T08:37:44.335Z,10.00
2023-04-22T08:40:11.679Z,11.13
2023-04-22T08:42:38.836Z,12.90
2023-04-22T08:45:06.670Z,16.93
2023-04-22T08:47:35.206Z,8.07
2023-04-22T08:50:04.383Z,9.40
2023-04-22T08:52:32.205Z,13.60
2023-04-22T08:54:59.887Z,11.93
2023-04-22T08:57:27.488Z,10.30
2023-04-22T08:59:56.560Z,7.90
2023-04-22T09:02:24.992Z,8.20
2023-04-22T09:04:56.459Z,10.87
2023-04-22T09:07:28.809Z,15.70
2023-04-22T09:09:56.938Z,10.10
2023-04-22T09:12:27.692Z,9.03
2023-04-22T09:14:56.208Z,13.97
2023-04-22T09:17:35.193Z,8.93
2023-04-22T09:20:04.891Z,7.33
2023-04-22T09:22:42.599Z,9.17
2023-04-22T09:25:22.058Z,12.20
2023-04-22T09:27:58.267Z,7.20
2023-04-22T09:30:36.557Z,7.97
2023-04-22T09:33:06.864Z,11.27
2023-04-22T09:35:40.059Z,9.83
2023-04-22T09:38:11.799Z,9.77
2023-04-22T09:40:43.687Z,8.27
2023-04-22T09:43:11.744Z,9.47
2023-04-22T09:45:43.227Z,6.23
2023-04-22T09:48:19.126Z,12.37
2023-04-22T09:50:49.534Z,16.20
2023-04-22T09:53:19.446Z,7.10
2023-04-22T09:55:54.419Z,9.40
2023-04-22T09:58:27.669Z,8.43
2023-04-22T10:00:58.092Z,8.23
2023-04-22T10:03:25.359Z,8.00
2023-04-22T10:05:52.712Z,6.90
2023-04-22T10:08:19.865Z,5.57
2023-04-22T10:10:47.071Z,8.13
2023-04-22T10:13:14.305Z,5.23
2023-04-22T10:15:55.869Z,11.97
2023-04-22T10:18:28.371Z,5.83
2023-04-22T10:20:58.122Z,6.23
2023-04-22T10:23:25.777Z,8.67
2023-04-22T10:25:57.225Z,7.93
2023-04-22T10:28:28.497Z,10.83
2023-04-22T10:30:55.745Z,9.23
2023-04-22T10:33:28.493Z,7.83
2023-04-22T10:36:17.767Z,6.60
2023-04-22T10:38:50.812Z,8.30
2023-04-22T10:41:27.291Z,5.97
2023-04-22T10:44:01.001Z,4.60
2023-04-22T10:46:40.397Z,10.10
2023-04-22T10:49:18.169Z,4.53
2023-04-22T10:51:59.536Z,8.47
2023-04-22T10:54:31.903Z,9.87
2023-04-22T10:57:15.461Z,8.27
2023-04-22T10:59:47.942Z,9.20
2023-04-22T11:02:17.688Z,6.43
2023-04-22T11:04:45.101Z,5.90
2023-04-22T11:07:27.327Z,4.20
2023-04-22T11:10:07.086Z,6.03
2023-04-22T11:12:38.510Z,7.87
2023-04-22T11:15:26.301Z,6.47
2023-04-22T11:17:55.371Z,7.20
2023-04-22T11:20:22.668Z,5.97
2023-04-22T11:22:54.106Z,7.13
2023-04-22T11:25:22.214Z,7.73
2023-04-22T11:27:49.594Z,25.17
2023-04-22T11:30:23.078Z,8.53
2023-04-22T11:32:57.329Z,4.80
2023-04-22T11:35:31.378Z,8.27
2023-04-22T11:38:06.161Z,11.33
2023-04-22T11:40:42.117Z,9.43
2023-04-22T11:43:11.826Z,7.70
2023-04-22T11:45:39.899Z,5.73
2023-04-22T11:48:11.174Z,10.53
2023-04-22T11:50:41.351Z,5.23
2023-04-22T11:53:19.485Z,5.50
2023-04-22T11:55:53.215Z,11.93
2023-04-22T11:58:27.321Z,7.23
2023-04-22T12:00:58.178Z,7.23
2023-04-22T12:03:28.323Z,5.70
2023-04-22T12:06:01.989Z,7.53
2023-04-22T12:08:42.438Z,6.90
2023-04-22T12:11:11.889Z,11.20
2023-04-22T12:13:38.976Z,4.67
2023-04-22T12:16:14.753Z,6.30
2023-04-22T12:18:49.191Z,5.10
2023-04-22T12:21:24.709Z,5.83
2023-04-22T12:24:05.003Z,7.60
2023-04-22T12:26:32.418Z,4.23
2023-04-22T12:29:00.892Z,7.70
2023-04-22T12:31:28.591Z,7.70
2023-04-22T12:33:56.404Z,4.13
2023-04-22T12:36:24.215Z,8.87
2023-04-22T12:38:51.525Z,5.60
2023-04-22T12:41:18.866Z,4.97
2023-04-22T12:43:47.757Z,7.80
2023-04-22T12:46:15.074Z,7.47
2023-04-22T12:48:42.864Z,5.40
2023-04-22T12:51:10.126Z,3.53
2023-04-22T12:53:37.272Z,7.10
2023-04-22T12:56:04.611Z,7.70
2023-04-22T12:58:31.798Z,3.60
2023-04-22T13:00:58.903Z,4.07
2023-04-22T13:03:26.213Z,3.93
2023-04-22T13:05:53.438Z,3.73
2023-04-22T13:08:21.234Z,4.40
2023-04-22T13:10:49.190Z,7.43
2023-04-22T13:13:18.868Z,6.27
2023-04-22T13:15:54.101Z,7.03
2023-04-22T13:18:23.287Z,3.90
2023-04-22T13:20:51.342Z,4.10
2023-04-22T13:23:21.625Z,6.50
2023-04-22T13:25:50.119Z,6.57
2023-04-22T13:28:17.188Z,4.60
2023-04-22T13:30:44.372Z,5.70
2023-04-22T13:33:11.539Z,9.60
2023-04-22T13:35:38.655Z,5.63
2023-04-22T13:38:07.247Z,5.80
2023-04-22T13:40:34.731Z,4.60
2023-04-22T13:43:01.843Z,6.07
2023-04-22T13:45:29.058Z,3.07
2023-04-22T13:47:56.383Z,5.17
2023-04-22T13:50:24.223Z,2.73
2023-04-22T13:52:51.467Z,6.63
2023-04-22T13:55:18.736Z,3.93
2023-04-22T13:57:46.068Z,4.07
2023-04-22T14:00:13.933Z,3.83
2023-04-22T14:02:41.286Z,7.43
2023-04-22T14:05:10.589Z,3.10
2023-04-22T14:07:38.189Z,2.57
2023-04-22T14:10:08.407Z,4.40
2023-04-22T14:12:35.695Z,10.97
2023-04-22T14:15:02.774Z,3.00
2023-04-22T14:17:30.016Z,5.70
2023-04-22T14:19:57.282Z,6.47
2023-04-22T14:22:24.409Z,11.83
2023-04-22T14:24:51.471Z,5.80
2023-04-22T14:27:18.539Z,10.30
2023-04-22T14:29:46.235Z,5.10
2023-04-22T14:32:14.157Z,4.20
2023-04-22T14:34:41.233Z,3.47
2023-04-22T14:37:08.349Z,4.93
2023-04-22T14:39:35.980Z,7.73
2023-04-22T14:42:04.438Z,3.27
2023-04-22T14:44:31.682Z,6.20
2023-04-22T14:46:58.843Z,6.10
2023-04-22T14:49:25.951Z,6.73
2023-04-22T14:51:53.098Z,7.97
2023-04-22T14:54:20.191Z,2.73
2023-04-22T14:56:48.124Z,4.17
2023-04-22T14:59:15.428Z,3.23
2023-04-22T15:01:43.186Z,4.93
2023-04-22T15:04:13.614Z,3.90
2023-04-22T15:06:41.439Z,4.00
2023-04-22T15:09:08.665Z,4.30
2023-04-22T15:11:35.787Z,3.80
2023-04-22T15:14:03.225Z,4.30
2023-04-22T15:16:30.509Z,6.00
2023-04-22T15:18:57.918Z,3.50
2023-04-22T15:21:25.024Z,3.47
2023-04-22T15:23:52.185Z,3.93
2023-04-22T15:26:19.400Z,3.93
2023-04-22T15:28:47.393Z,4.80
2023-04-22T15:31:14.527Z,6.93
2023-04-22T15:33:41.710Z,6.83
2023-04-22T15:36:09.728Z,10.93
2023-04-22T15:38:38.606Z,5.63
2023-04-22T15:41:05.811Z,5.37
2023-04-22T15:43:33.123Z,3.90
2023-04-22T15:46:01.256Z,8.10
2023-04-22T15:48:28.451Z,8.23
2023-04-22T15:50:55.594Z,20.50
2023-04-22T15:53:22.795Z,5.20
2023-04-22T15:55:49.956Z,9.03
2023-04-22T15:58:18.723Z,5.23
2023-04-22T16:00:46.084Z,7.93
2023-04-22T16:03:13.370Z,6.40
2023-04-22T16:05:40.602Z,5.47
2023-04-22T16:08:07.898Z,4.50
2023-04-22T16:10:34.994Z,4.03
2023-04-22T16:13:02.094Z,5.00
2023-04-22T16:15:29.242Z,6.83
2023-04-22T16:17:56.955Z,5.90
2023-04-22T16:20:25.025Z,6.50
2023-04-22T16:22:52.164Z,5.70
2023-04-22T16:25:20.088Z,7.20
2023-04-22T16:27:47.312Z,12.60
2023-04-22T16:30:16.207Z,7.73
2023-04-22T16:32:43.508Z,16.03
2023-04-22T16:35:11.479Z,5.53
2023-04-22T16:37:38.652Z,8.87
2023-04-22T16:40:07.960Z,9.60
2023-04-22T16:42:35.392Z,5.30
2023-04-22T16:45:02.623Z,8.23
2023-04-22T16:47:29.928Z,13.73
2023-04-22T16:49:57.144Z,9.50
2023-04-22T16:52:24.316Z,9.70
2023-04-22T16:54:51.747Z,5.80
2023-04-22T16:57:18.935Z,10.30
2023-04-22T16:59:46.045Z,6.70
2023-04-22T17:02:13.396Z,5.90
2023-04-22T17:04:40.714Z,8.87
2023-04-22T17:07:08.014Z,7.73
2023-04-22T17:09:35.211Z,7.80
2023-04-22T17:12:02.673Z,13.50
2023-04-22T17:14:29.997Z,12.57
2023-04-22T17:16:57.131Z,8.60
2023-04-22T17:19:25.077Z,8.10
2023-04-22T17:21:52.226Z,12.77
2023-04-22T17:24:21.078Z,8.37
2023-04-22T17:26:49.448Z,10.13
2023-04-22T17:29:16.599Z,6.73
2023-04-22T17:31:43.856Z,8.23
2023-04-22T17:34:10.985Z,10.83
2023-04-22T17:36:38.153Z,13.60
2023-04-22T17:39:05.359Z,16.70
2023-04-22T17:41:32.454Z,10.00
2023-04-22T17:43:59.758Z,15.27
2023-04-22T17:46:27.025Z,15.63
2023-04-22T17:48:54.160Z,15.80
2023-04-22T17:51:21.270Z,19.30
2023-04-22T17:53:48.555Z,17.63
2023-04-22T17:56:15.720Z,15.07
2023-04-22T17:58:42.838Z,22.33
2023-04-22T18:01:10.197Z,19.60
2023-04-22T18:03:37.544Z,16.77
2023-04-22T18:06:05.179Z,14.87
2023-04-22T18:08:32.422Z,11.90
2023-04-22T18:10:59.690Z,16.40
2023-04-22T18:13:26.894Z,20.13
2023-04-22T18:15:54.040Z,22.37
2023-04-22T18:18:21.144Z,20.33
2023-04-22T18:20:48.484Z,21.40
2023-04-22T18:23:15.814Z,13.90
2023-04-22T18:25:43.437Z,14.57
2023-04-22T18:28:10.844Z,10.50
2023-04-22T18:30:37.906Z,19.03
2023-04-22T18:33:05.122Z,11.80
2023-04-22T18:35:33.757Z,9.43
2023-04-22T18:38:00.903Z,15.93
2023-04-22T18:40:28.002Z,8.70
2023-04-22T18:42:55.496Z,15.20
2023-04-22T18:45:23.122Z,19.43
2023-04-22T18:47:50.666Z,19.80
2023-04-22T18:50:17.959Z,13.07
2023-04-22T18:52:45.098Z,12.80
2023-04-22T18:55:12.490Z,11.70
2023-04-22T18:57:39.586Z,18.57
2023-04-22T19:00:08.327Z,15.60
2023-04-22T19:02:39.114Z,17.63
2023-04-22T19:05:08.501Z,15.63
2023-04-22T19:07:36.027Z,20.93
2023-04-22T19:10:03.999Z,29.40
2023-04-22T19:12:31.196Z,14.90
2023-04-22T19:15:00.289Z,16.47
2023-04-22T19:17:28.870Z,13.60
2023-04-22T19:19:56.129Z,23.33
2023-04-22T19:22:23.385Z,20.47
2023-04-22T19:24:50.789Z,20.43
2023-04-22T19:27:19.007Z,14.70
2023-04-22T19:29:51.298Z,18.77
2023-04-22T19:32:18.595Z,22.83
2023-04-22T19:34:47.310Z,19.93
2023-04-22T19:37:14.506Z,16.97
2023-04-22T19:39:42.031Z,16.73
2023-04-22T19:42:09.381Z,28.87
2023-04-22T19:44:36.602Z,28.07
2023-04-22T19:47:03.739Z,18.00
2023-04-22T19:49:31.910Z,18.20
2023-04-22T19:52:02.082Z,20.90
2023-04-22T19:54:30.485Z,28.10
2023-04-22T19:56:58.631Z,27.50
2023-04-22T19:59:28.054Z,26.40
2023-04-22T20:01:55.644Z,19.23
2023-04-22T20:04:23.346Z,14.90
2023-04-22T20:06:52.159Z,17.77
2023-04-22T20:09:19.792Z,25.53
2023-04-22T20:11:48.019Z,26.00
2023-04-22T20:14:16.245Z,22.97
2023-04-22T20:16:44.773Z,17.20
2023-04-22T20:19:13.953Z,22.60
2023-04-22T20:21:41.588Z,23.30
2023-04-22T20:24:18.964Z,22.00
2023-04-22T20:26:47.997Z,19.07
2023-04-22T20:29:17.639Z,25.93
2023-04-22T20:31:45.085Z,18.57
2023-04-22T20:34:13.187Z,29.23
2023-04-22T20:36:40.552Z,14.63
2023-04-22T20:39:09.289Z,15.17
2023-04-22T20:41:39.344Z,18.57
2023-04-22T20:44:07.050Z,20.17
2023-04-22T20:46:35.127Z,23.13
2023-04-22T20:49:02.299Z,14.10
2023-04-22T20:51:29.566Z,22.00
2023-04-22T20:53:57.503Z,25.53
2023-04-22T20:56:25.467Z,20.50
2023-04-22T20:58:52.832Z,21.67
2023-04-22T21:01:20.184Z,22.67
2023-04-22T21:03:52.457Z,24.37
2023-04-22T21:06:21.243Z,27.83
2023-04-22T21:08:49.838Z,27.10
2023-04-22T21:11:17.436Z,30.03
2023-04-22T21:13:45.280Z,37.37
2023-04-22T21:16:14.205Z,27.60
2023-04-22T21:18:44.677Z,25.17
2023-04-22T21:21:13.425Z,19.17
2023-04-22T21:23:42.257Z,22.83
2023-04-22T21:26:10.891Z,19.93
2023-04-22T21:28:39.267Z,16.87
2023-04-22T21:31:07.146Z,16.60
2023-04-22T21:33:34.368Z,14.17
2023-04-22T21:36:01.517Z,26.53
2023-04-22T21:38:29.653Z,21.73
2023-04-22T21:40:56.644Z,18.37
2023-04-22T21:43:23.749Z,15.93
2023-04-22T21:45:50.995Z,15.30
2023-04-22T21:48:18.085Z,17.60
2023-04-22T21:50:45.271Z,17.43
2023-04-22T21:53:12.768Z,15.30
2023-04-22T21:55:39.912Z,12.03
2023-04-22T21:58:07.845Z,15.77
2023-04-22T22:00:34.997Z,14.40
2023-04-22T22:03:02.286Z,13.53
2023-04-22T22:05:29.793Z,15.07
2023-04-22T22:07:57.000Z,15.57
2023-04-22T22:10:24.909Z,13.90
2023-04-22T22:12:52.102Z,15.30
2023-04-22T22:15:19.255Z,13.80
2023-04-22T22:17:46.600Z,17.93
2023-04-22T22:20:18.096Z,10.87
2023-04-22T22:22:45.295Z,11.87
2023-04-22T22:25:15.256Z,9.80
2023-04-22T22:27:48.728Z,15.30
2023-04-22T22:30:18.720Z,11.73
2023-04-22T22:32:46.511Z,14.50
2023-04-22T22:35:13.870Z,16.60
2023-04-22T22:37:41.235Z,12.90
2023-04-22T22:40:09.108Z,11.67
2023-04-22T22:42:36.279Z,16.77
2023-04-22T22:45:05.248Z,12.77
2023-04-22T22:47:32.749Z,13.97
2023-04-22T22:50:00.032Z,13.17
2023-04-22T22:52:27.521Z,15.47
2023-04-22T22:54:54.639Z,13.80
2023-04-22T22:57:21.840Z,16.03
2023-04-22T22:59:48.943Z,14.83
2023-04-22T23:02:16.261Z,12.90
2023-04-22T23:04:43.728Z,14.10
2023-04-22T23:07:10.958Z,16.40
2023-04-22T23:09:38.096Z,16.70
2023-04-22T23:12:05.621Z,12.70
2023-04-22T23:14:33.437Z,13.63
2023-04-22T23:17:01.466Z,12.90
2023-04-22T23:19:29.134Z,16.23
2023-04-22T23:21:56.870Z,10.20
2023-04-22T23:24:24.361Z,15.30
2023-04-22T23:26:52.005Z,10.70
2023-04-22T23:29:19.665Z,9.83
2023-04-22T23:31:50.430Z,11.40
2023-04-22T23:34:19.661Z,20.90
2023-04-22T23:36:48.052Z,12.10
2023-04-22T23:39:15.220Z,12.87
2023-04-22T23:41:42.298Z,12.63
2023-04-22T23:44:09.466Z,14.40
2023-04-22T23:46:36.578Z,13.30
2023-04-22T23:49:03.709Z,11.80
2023-04-22T23:51:31.029Z,15.57
2023-04-22T23:53:58.372Z,13.77
2023-04-22T23:56:26.544Z,9.50
2023-04-22T23:58:54.030Z,17.97
